createdAt,value
2023-02-11T00:00:24.719Z,39.30
2023-02-11T00:02:01.046Z,35.58
2023-02-11T00:03:35.750Z,29.38
2023-02-11T00:05:09.322Z,34.05
2023-02-11T00:06:42.503Z,25.85
2023-02-11T00:08:17.101Z,27.80
2023-02-11T00:09:50.234Z,31.45
2023-02-11T00:11:25.762Z,25.30
2023-02-11T00:12:58.868Z,35.53
2023-02-11T00:14:32.005Z,30.55
2023-02-11T00:16:09.298Z,28.13
2023-02-11T00:17:44.039Z,27.27
2023-02-11T00:19:17.185Z,26.23
2023-02-11T00:20:49.796Z,25.35
2023-02-11T00:22:23.077Z,28.17
2023-02-11T00:23:57.266Z,32.63
2023-02-11T00:25:30.412Z,33.55
2023-02-11T00:27:04.070Z,39.88
2023-02-11T00:28:37.484Z,41.15
2023-02-11T00:30:12.216Z,39.83
2023-02-11T00:31:45.495Z,36.00
2023-02-11T00:33:20.039Z,30.48
2023-02-11T00:34:55.320Z,23.17
2023-02-11T00:36:30.333Z,30.52
2023-02-11T00:38:03.433Z,31.73
2023-02-11T00:39:38.419Z,30.65
2023-02-11T00:41:11.700Z,34.38
2023-02-11T00:42:45.269Z,31.60
2023-02-11T00:44:18.446Z,33.67
2023-02-11T00:45:53.361Z,28.30
2023-02-11T00:47:26.778Z,29.17
2023-02-11T00:49:01.571Z,26.52
2023-02-11T00:50:34.707Z,28.10
2023-02-11T00:52:07.854Z,29.98
2023-02-11T00:53:40.396Z,26.17
2023-02-11T00:55:13.998Z,25.88
2023-02-11T00:56:46.153Z,25.13
2023-02-11T00:58:19.467Z,28.13
2023-02-11T00:59:52.646Z,29.67
2023-02-11T01:01:26.600Z,37.35
2023-02-11T01:02:59.786Z,30.50
2023-02-11T01:04:34.340Z,22.92
2023-02-11T01:06:08.507Z,36.10
2023-02-11T01:07:44.516Z,24.48
2023-02-11T01:09:17.762Z,28.85
2023-02-11T01:10:55.181Z,30.30
2023-02-11T01:12:28.305Z,36.80
2023-02-11T01:14:04.147Z,36.47
2023-02-11T01:15:37.346Z,36.28
2023-02-11T01:17:10.949Z,37.75
2023-02-11T01:18:44.483Z,46.45
2023-02-11T01:20:22.358Z,40.72
2023-02-11T01:21:55.700Z,35.92
2023-02-11T01:23:27.894Z,48.13
2023-02-11T01:25:02.379Z,32.03
2023-02-11T01:26:35.701Z,30.77
2023-02-11T01:28:12.539Z,26.73
2023-02-11T01:29:45.900Z,37.53
2023-02-11T01:31:19.727Z,29.00
2023-02-11T01:32:53.211Z,35.80
2023-02-11T01:34:26.278Z,37.03
2023-02-11T01:36:03.959Z,51.33
2023-02-11T01:37:37.899Z,53.47
2023-02-11T01:39:11.283Z,52.22
2023-02-11T01:40:48.250Z,60.72
2023-02-11T01:42:24.197Z,36.75
2023-02-11T01:43:57.383Z,36.25
2023-02-11T01:46:05.329Z,48.80
2023-02-11T01:47:38.526Z,38.15
2023-02-11T01:49:15.126Z,41.40
2023-02-11T01:50:52.200Z,49.33
2023-02-11T01:52:30.511Z,46.53
2023-02-11T01:54:22.492Z,38.22
2023-02-11T01:56:14.785Z,36.17
2023-02-11T01:57:53.589Z,34.50
2023-02-11T01:59:30.694Z,32.47
2023-02-11T02:01:05.916Z,39.88
2023-02-11T02:02:45.362Z,38.53
2023-02-11T02:04:21.056Z,34.95
2023-02-11T02:06:00.974Z,31.65
2023-02-11T02:07:43.030Z,42.75
2023-02-11T02:09:21.629Z,29.80
2023-02-11T02:10:56.658Z,29.02
2023-02-11T02:12:28.819Z,25.75
2023-02-11T02:14:02.752Z,27.75
2023-02-11T02:15:37.580Z,26.70
2023-02-11T02:17:23.764Z,36.85
2023-02-11T02:19:09.326Z,33.83
2023-02-11T02:21:09.197Z,33.28
2023-02-11T02:23:05.113Z,39.38
2023-02-11T02:25:01.085Z,29.48
2023-02-11T02:27:04.424Z,31.95
2023-02-11T02:29:08.963Z,19.83
2023-02-11T02:31:10.514Z,23.55
2023-02-11T02:33:21.619Z,23.33
2023-02-11T02:35:02.932Z,22.05
2023-02-11T02:36:42.619Z,24.08
2023-02-11T02:38:23.654Z,24.52
2023-02-11T02:39:57.864Z,25.45
2023-02-11T02:41:33.681Z,27.42
2023-02-11T02:43:10.313Z,28.45
2023-02-11T02:44:49.913Z,22.75
2023-02-11T02:46:24.662Z,26.35
2023-02-11T02:47:59.529Z,26.20
2023-02-11T02:49:32.745Z,34.95
2023-02-11T02:51:18.339Z,30.17
2023-02-11T02:53:01.846Z,28.50
2023-02-11T02:55:03.145Z,28.80
2023-02-11T02:56:46.340Z,25.38
2023-02-11T02:58:50.161Z,24.38
2023-02-11T03:00:29.828Z,59.17
2023-02-11T03:02:13.985Z,46.38
2023-02-11T03:03:55.157Z,38.47
2023-02-11T03:05:33.314Z,34.80
2023-02-11T03:07:17.407Z,23.20
2023-02-11T03:08:56.765Z,25.73
2023-02-11T03:10:32.856Z,25.45
2023-02-11T03:12:08.577Z,34.72
2023-02-11T03:13:43.428Z,33.08
2023-02-11T03:15:17.940Z,30.90
2023-02-11T03:16:53.431Z,35.58
2023-02-11T03:18:29.147Z,40.22
2023-02-11T03:20:05.966Z,34.22
2023-02-11T03:21:41.989Z,38.08
2023-02-11T03:23:20.069Z,44.50
2023-02-11T03:24:52.449Z,30.63
2023-02-11T03:26:31.619Z,44.97
2023-02-11T03:28:09.347Z,57.63
2023-02-11T03:29:49.424Z,86.63
2023-02-11T03:31:30.600Z,82.72
2023-02-11T03:33:09.881Z,216.38
2023-02-11T03:34:47.576Z,51.72
2023-02-11T03:36:27.951Z,38.53
2023-02-11T03:38:05.513Z,74.85
2023-02-11T03:39:41.374Z,35.35
2023-02-11T03:41:17.378Z,40.13
2023-02-11T03:42:54.573Z,62.35
2023-02-11T03:44:33.169Z,76.15
2023-02-11T03:46:07.342Z,37.33
2023-02-11T03:47:45.143Z,30.02
2023-02-11T03:49:21.969Z,29.73
2023-02-11T03:50:56.633Z,22.98
2023-02-11T03:52:31.852Z,308.77
2023-02-11T03:54:10.160Z,266.08
2023-02-11T03:55:45.268Z,85.75
2023-02-11T03:57:18.554Z,50.15
2023-02-11T03:58:51.129Z,36.92
2023-02-11T04:00:31.660Z,54.22
2023-02-11T04:02:04.948Z,70.72
2023-02-11T04:03:38.149Z,94.72
2023-02-11T04:05:17.425Z,34.72
2023-02-11T04:06:49.494Z,23.45
2023-02-11T04:08:24.204Z,21.73
2023-02-11T04:09:57.314Z,29.38
2023-02-11T04:11:30.621Z,29.90
2023-02-11T04:13:04.012Z,22.55
2023-02-11T04:14:37.449Z,24.25
2023-02-11T04:16:09.626Z,23.25
2023-02-11T04:17:43.073Z,23.63
2023-02-11T04:19:15.222Z,44.03
2023-02-11T04:20:49.134Z,36.60
2023-02-11T04:22:22.332Z,28.50
2023-02-11T04:23:57.301Z,16.85
2023-02-11T04:25:30.518Z,28.15
2023-02-11T04:27:04.102Z,21.77
2023-02-11T04:28:37.418Z,27.75
2023-02-11T04:30:10.463Z,29.90
2023-02-11T04:31:43.815Z,27.23
2023-02-11T04:33:17.518Z,33.17
2023-02-11T04:34:50.005Z,28.33
2023-02-11T04:36:23.259Z,31.38
2023-02-11T04:37:55.450Z,36.20
2023-02-11T04:39:30.194Z,32.38
2023-02-11T04:41:03.432Z,37.78
2023-02-11T04:42:36.612Z,28.90
2023-02-11T04:44:09.897Z,34.85
2023-02-11T04:45:42.537Z,33.90
2023-02-11T04:47:15.990Z,35.55
2023-02-11T04:48:48.268Z,41.03
2023-02-11T04:50:21.433Z,43.58
2023-02-11T04:51:54.776Z,47.45
2023-02-11T04:53:26.929Z,51.63
2023-02-11T04:55:01.460Z,35.65
2023-02-11T04:56:33.650Z,33.88
2023-02-11T04:58:07.042Z,40.83
2023-02-11T04:59:40.735Z,47.30
2023-02-11T05:01:15.061Z,48.83
2023-02-11T05:02:48.271Z,58.83
2023-02-11T05:04:21.478Z,44.28
2023-02-11T05:05:55.450Z,47.45
2023-02-11T05:07:28.621Z,41.53
2023-02-11T05:09:01.756Z,47.53
2023-02-11T05:10:35.955Z,35.72
2023-02-11T05:12:09.131Z,33.80
2023-02-11T05:13:41.448Z,38.95
2023-02-11T05:15:14.636Z,34.20
2023-02-11T05:16:48.200Z,31.23
2023-02-11T05:18:20.634Z,34.95
2023-02-11T05:19:53.884Z,39.95
2023-02-11T05:21:27.354Z,34.85
2023-02-11T05:23:00.644Z,37.95
2023-02-11T05:24:34.197Z,44.78
2023-02-11T05:26:09.352Z,39.20
2023-02-11T05:27:42.502Z,20.13
2023-02-11T05:29:15.707Z,33.38
2023-02-11T05:30:48.860Z,39.00
2023-02-11T05:32:22.565Z,34.78
2023-02-11T05:33:55.820Z,19.23
2023-02-11T05:35:28.475Z,28.75
2023-02-11T05:37:01.633Z,28.33
2023-02-11T05:38:33.862Z,23.85
2023-02-11T05:40:07.863Z,30.40
2023-02-11T05:41:42.472Z,27.05
2023-02-11T05:43:15.552Z,31.83
2023-02-11T05:44:50.633Z,28.65
2023-02-11T05:46:23.954Z,28.73
2023-02-11T05:47:57.278Z,29.13
2023-02-11T05:49:30.464Z,32.72
2023-02-11T05:51:08.534Z,46.92
2023-02-11T05:52:41.700Z,42.00
2023-02-11T05:54:15.650Z,36.90
2023-02-11T05:55:49.096Z,82.55
2023-02-11T05:57:24.017Z,113.95
2023-02-11T05:58:57.175Z,43.38
2023-02-11T06:00:30.474Z,97.05
2023-02-11T06:02:03.655Z,108.10
2023-02-11T06:03:36.955Z,117.82
2023-02-11T06:05:10.901Z,100.72
2023-02-11T06:06:44.279Z,93.55
2023-02-11T06:08:17.450Z,72.88
2023-02-11T06:09:50.774Z,46.05
2023-02-11T06:11:23.901Z,41.63
2023-02-11T06:12:58.541Z,32.10
2023-02-11T06:14:34.015Z,33.50
2023-02-11T06:16:07.748Z,31.27
2023-02-11T06:17:41.030Z,20.10
2023-02-11T06:19:14.661Z,25.25
2023-02-11T06:20:47.832Z,31.48
2023-02-11T06:22:21.278Z,27.40
2023-02-11T06:23:54.466Z,35.58
2023-02-11T06:25:28.000Z,32.70
2023-02-11T06:27:00.156Z,36.75
2023-02-11T06:28:36.078Z,28.85
2023-02-11T06:30:10.367Z,32.63
2023-02-11T06:31:43.873Z,36.03
2023-02-11T06:33:17.597Z,27.40
2023-02-11T06:34:50.757Z,53.88
2023-02-11T06:36:24.151Z,66.78
2023-02-11T06:37:57.465Z,76.70
2023-02-11T06:39:30.775Z,42.35
2023-02-11T06:41:04.391Z,48.40
2023-02-11T06:42:38.772Z,46.42
2023-02-11T06:44:13.530Z,55.30
2023-02-11T06:45:46.639Z,84.80
2023-02-11T06:47:20.038Z,37.60
2023-02-11T06:48:53.241Z,40.22
2023-02-11T06:50:26.458Z,34.95
2023-02-11T06:51:59.735Z,30.17
2023-02-11T06:53:32.975Z,34.97
2023-02-11T06:55:06.696Z,31.63
2023-02-11T06:56:41.380Z,52.75
2023-02-11T06:58:14.518Z,73.22
2023-02-11T06:59:48.141Z,65.50
2023-02-11T07:01:21.352Z,72.28
2023-02-11T07:02:54.774Z,104.50
2023-02-11T07:04:27.859Z,101.68
2023-02-11T07:06:01.173Z,114.22
2023-02-11T07:07:35.075Z,94.70
2023-02-11T07:09:08.841Z,93.32
2023-02-11T07:10:42.402Z,88.78
2023-02-11T07:12:15.661Z,99.13
2023-02-11T07:13:49.362Z,65.78
2023-02-11T07:15:24.096Z,51.00
2023-02-11T07:16:56.243Z,59.35
2023-02-11T07:18:29.454Z,63.13
2023-02-11T07:20:02.545Z,70.68
2023-02-11T07:21:36.039Z,83.43
2023-02-11T07:23:09.225Z,75.18
2023-02-11T07:24:42.755Z,79.47
2023-02-11T07:26:18.901Z,47.55
2023-02-11T07:27:52.206Z,41.42
2023-02-11T07:29:25.397Z,49.42
2023-02-11T07:30:58.921Z,60.10
2023-02-11T07:32:32.167Z,72.38
2023-02-11T07:34:05.598Z,66.05
2023-02-11T07:35:40.460Z,56.03
2023-02-11T07:37:15.530Z,55.20
2023-02-11T07:38:49.086Z,41.75
2023-02-11T07:40:22.437Z,50.20
2023-02-11T07:41:55.116Z,37.30
2023-02-11T07:43:29.552Z,33.17
2023-02-11T07:45:02.922Z,41.78
2023-02-11T07:46:37.809Z,33.72
2023-02-11T07:48:11.024Z,30.17
2023-02-11T07:49:44.305Z,33.63
2023-02-11T07:51:19.005Z,32.38
2023-02-11T07:52:52.510Z,25.85
2023-02-11T07:54:25.803Z,28.73
2023-02-11T07:55:59.250Z,38.65
2023-02-11T07:57:32.536Z,37.15
2023-02-11T07:59:05.957Z,39.90
2023-02-11T08:00:39.113Z,43.15
2023-02-11T08:02:13.936Z,41.40
2023-02-11T08:03:47.305Z,52.53
2023-02-11T08:05:20.561Z,46.13
2023-02-11T08:06:58.680Z,47.40
2023-02-11T08:08:32.278Z,42.95
2023-02-11T08:10:05.827Z,43.80
2023-02-11T08:11:39.147Z,39.63
2023-02-11T08:13:12.311Z,34.13
2023-02-11T08:14:45.573Z,40.72
2023-02-11T08:16:22.705Z,29.27
2023-02-11T08:17:57.415Z,37.72
2023-02-11T08:19:33.494Z,32.05
2023-02-11T08:21:09.784Z,35.70
2023-02-11T08:22:43.022Z,37.08
2023-02-11T08:24:16.457Z,40.22
2023-02-11T08:25:49.648Z,35.38
2023-02-11T08:27:23.215Z,32.88
2023-02-11T08:28:57.811Z,30.52
2023-02-11T08:30:31.670Z,28.23
2023-02-11T08:32:05.021Z,29.52
2023-02-11T08:33:40.428Z,27.63
2023-02-11T08:35:17.834Z,29.17
2023-02-11T08:36:51.297Z,31.52
2023-02-11T08:38:24.444Z,34.75
2023-02-11T08:39:57.710Z,31.25
2023-02-11T08:41:31.062Z,31.92
2023-02-11T08:43:06.301Z,34.47
2023-02-11T08:44:41.161Z,35.35
2023-02-11T08:46:17.113Z,34.38
2023-02-11T08:47:50.421Z,35.92
2023-02-11T08:49:25.129Z,32.08
2023-02-11T08:50:58.670Z,31.23
2023-02-11T08:52:31.789Z,28.02
2023-02-11T08:54:06.303Z,35.28
2023-02-11T08:55:39.434Z,25.45
2023-02-11T08:57:12.616Z,25.85
2023-02-11T08:58:45.913Z,24.55
2023-02-11T09:00:20.048Z,22.20
2023-02-11T09:01:53.365Z,23.63
2023-02-11T09:03:26.740Z,23.70
2023-02-11T09:05:01.460Z,25.38
2023-02-11T09:06:34.738Z,24.70
2023-02-11T09:08:07.927Z,20.73
2023-02-11T09:09:41.172Z,31.77
2023-02-11T09:11:15.156Z,31.40
2023-02-11T09:12:48.316Z,26.67
2023-02-11T09:14:23.498Z,28.15
2023-02-11T09:15:56.767Z,27.70
2023-02-11T09:17:30.025Z,28.45
2023-02-11T09:19:04.777Z,30.80
2023-02-11T09:20:39.450Z,22.65
2023-02-11T09:22:12.541Z,22.70
2023-02-11T09:23:48.044Z,21.17
2023-02-11T09:25:21.678Z,25.70
2023-02-11T09:26:55.009Z,27.35
2023-02-11T09:28:28.401Z,26.25
2023-02-11T09:30:01.757Z,27.83
2023-02-11T09:31:36.254Z,28.40
2023-02-11T09:33:09.585Z,26.98
2023-02-11T09:34:42.792Z,27.42
2023-02-11T09:36:19.725Z,29.98
2023-02-11T09:37:52.894Z,30.98
2023-02-11T09:39:26.779Z,28.67
2023-02-11T09:41:02.695Z,27.52
2023-02-11T09:42:45.316Z,33.13
2023-02-11T09:44:21.800Z,31.33
2023-02-11T09:45:57.068Z,47.30
2023-02-11T09:47:33.809Z,34.60
2023-02-11T09:49:08.897Z,34.67
2023-02-11T09:50:45.511Z,147.50
2023-02-11T09:52:29.789Z,49.90
2023-02-11T09:54:08.982Z,35.95
2023-02-11T09:55:44.942Z,34.85
2023-02-11T09:57:28.258Z,40.85
2023-02-11T09:59:01.992Z,31.77
2023-02-11T10:00:41.610Z,32.47
2023-02-11T10:02:22.089Z,28.40
2023-02-11T10:04:03.541Z,30.98
2023-02-11T10:05:47.787Z,31.25
2023-02-11T10:07:29.351Z,24.25
2023-02-11T10:09:09.662Z,33.63
2023-02-11T10:10:52.249Z,41.95
2023-02-11T10:12:50.887Z,25.95
2023-02-11T10:14:39.478Z,37.95
2023-02-11T10:16:28.097Z,35.22
2023-02-11T10:18:18.296Z,31.15
2023-02-11T10:20:04.290Z,28.35
2023-02-11T10:21:47.885Z,28.77
2023-02-11T10:23:26.188Z,28.75
2023-02-11T10:25:00.939Z,29.33
2023-02-11T10:26:36.817Z,31.63
2023-02-11T10:28:16.004Z,31.13
2023-02-11T10:29:52.977Z,30.15
2023-02-11T10:31:30.062Z,33.30
2023-02-11T10:33:08.415Z,34.80
2023-02-11T10:34:42.991Z,44.75
2023-02-11T10:36:19.032Z,39.20
2023-02-11T10:37:52.469Z,41.60
2023-02-11T10:39:28.912Z,45.33
2023-02-11T10:41:02.257Z,30.60
2023-02-11T10:42:36.977Z,31.58
2023-02-11T10:44:18.235Z,35.60
2023-02-11T10:45:55.248Z,33.60
2023-02-11T10:47:33.958Z,36.30
2023-02-11T10:49:07.335Z,37.00
2023-02-11T10:50:40.507Z,23.92
2023-02-11T10:52:16.156Z,56.33
2023-02-11T10:53:51.415Z,50.95
2023-02-11T10:55:29.233Z,39.08
2023-02-11T10:57:02.464Z,27.15
2023-02-11T10:58:42.945Z,35.30
2023-02-11T11:00:37.029Z,17.60
2023-02-11T11:02:24.736Z,15.98
2023-02-11T11:03:59.999Z,19.27
2023-02-11T11:05:35.823Z,19.38
2023-02-11T11:07:19.475Z,13.60
2023-02-11T11:08:53.228Z,17.23
2023-02-11T11:10:43.568Z,13.98
2023-02-11T11:12:42.161Z,20.77
2023-02-11T11:14:26.075Z,44.70
2023-02-11T11:16:27.157Z,38.45
2023-02-11T11:18:23.681Z,30.15
2023-02-11T11:20:16.373Z,23.25
2023-02-11T11:21:52.673Z,39.03
2023-02-11T11:23:27.045Z,23.05
2023-02-11T11:25:01.659Z,60.92
2023-02-11T11:26:44.387Z,33.72
2023-02-11T11:28:24.984Z,26.73
2023-02-11T11:29:59.105Z,27.40
2023-02-11T11:31:36.668Z,28.52
2023-02-11T11:33:21.659Z,37.50
2023-02-11T11:34:57.061Z,34.40
2023-02-11T11:36:37.349Z,42.45
2023-02-11T11:38:16.508Z,24.67
2023-02-11T11:39:58.221Z,60.85
2023-02-11T11:41:33.921Z,32.15
2023-02-11T11:43:23.113Z,34.15
2023-02-11T11:45:02.161Z,29.95
2023-02-11T11:46:38.654Z,30.00
2023-02-11T11:48:20.628Z,26.70
2023-02-11T11:50:18.992Z,26.45
2023-02-11T11:52:10.048Z,37.08
2023-02-11T11:53:49.764Z,18.50
2023-02-11T11:55:26.833Z,27.83
2023-02-11T11:57:04.511Z,22.25
2023-02-11T11:58:39.386Z,24.15
2023-02-11T12:00:19.022Z,19.65
2023-02-11T12:02:23.348Z,16.45
2023-02-11T12:04:34.610Z,16.60
2023-02-11T12:06:19.643Z,21.40
2023-02-11T12:08:04.982Z,16.15
2023-02-11T12:09:49.427Z,16.17
2023-02-11T12:11:32.218Z,19.25
2023-02-11T12:13:15.577Z,21.15
2023-02-11T12:15:01.012Z,18.15
2023-02-11T12:16:43.639Z,41.42
2023-02-11T12:18:33.259Z,24.55
2023-02-11T12:20:19.108Z,15.23
2023-02-11T12:22:02.242Z,28.50
2023-02-11T12:23:46.496Z,41.28
2023-02-11T12:25:28.618Z,10.48
2023-02-11T12:27:10.187Z,11.20
2023-02-11T12:28:54.438Z,8.98
2023-02-11T12:30:49.290Z,17.63
2023-02-11T12:32:29.301Z,14.32
2023-02-11T12:34:45.505Z,13.00
2023-02-11T12:36:40.133Z,11.00
2023-02-11T12:38:33.559Z,11.85
2023-02-11T12:40:19.256Z,10.43
2023-02-11T12:42:36.628Z,16.95
2023-02-11T12:44:21.944Z,10.27
2023-02-11T12:46:31.380Z,8.82
2023-02-11T12:48:22.811Z,21.73
2023-02-11T12:50:06.945Z,12.02
2023-02-11T12:51:59.357Z,10.25
2023-02-11T12:54:00.939Z,11.73
2023-02-11T12:55:38.163Z,13.73
2023-02-11T12:57:19.584Z,12.48
2023-02-11T12:58:56.817Z,28.30
2023-02-11T13:00:39.904Z,17.40
2023-02-11T13:02:22.991Z,15.85
2023-02-11T13:04:02.501Z,13.23
2023-02-11T13:05:41.719Z,9.70
2023-02-11T13:07:21.003Z,9.57
2023-02-11T13:09:03.959Z,13.23
2023-02-11T13:10:39.433Z,13.48
2023-02-11T13:12:32.744Z,8.35
2023-02-11T13:14:10.994Z,10.63
2023-02-11T13:15:46.986Z,14.88
2023-02-11T13:17:31.750Z,12.38
2023-02-11T13:19:15.627Z,15.13
2023-02-11T13:20:57.569Z,22.67
2023-02-11T13:22:36.125Z,23.33
2023-02-11T13:24:21.605Z,25.92
2023-02-11T13:26:03.627Z,58.33
2023-02-11T13:27:42.794Z,27.10
2023-02-11T13:29:25.801Z,29.38
2023-02-11T13:31:03.518Z,21.00
2023-02-11T13:33:19.563Z,20.40
2023-02-11T13:34:58.776Z,20.33
2023-02-11T13:36:35.228Z,12.38
2023-02-11T13:38:21.557Z,8.52
2023-02-11T13:40:00.553Z,14.35
2023-02-11T13:41:40.629Z,16.63
2023-02-11T13:43:23.308Z,12.48
2023-02-11T13:44:57.533Z,17.02
2023-02-11T13:46:49.312Z,19.50
2023-02-11T13:48:26.712Z,16.13
2023-02-11T13:50:01.885Z,17.00
2023-02-11T13:51:38.043Z,9.88
2023-02-11T13:53:11.405Z,16.10
2023-02-11T13:54:51.192Z,10.63
2023-02-11T13:56:30.454Z,19.02
2023-02-11T13:58:20.129Z,11.73
2023-02-11T13:59:55.639Z,11.05
2023-02-11T14:02:20.515Z,12.55
2023-02-11T14:04:39.934Z,17.25
2023-02-11T14:06:34.756Z,19.25
2023-02-11T14:08:33.478Z,17.20
2023-02-11T14:10:45.783Z,13.32
2023-02-11T14:12:32.466Z,42.70
2023-02-11T14:14:17.917Z,29.50
2023-02-11T14:16:06.115Z,17.88
2023-02-11T14:17:39.258Z,14.02
2023-02-11T14:19:31.774Z,13.80
2023-02-11T14:21:13.500Z,18.77
2023-02-11T14:22:50.882Z,17.67
2023-02-11T14:24:48.155Z,11.95
2023-02-11T14:26:37.782Z,9.45
2023-02-11T14:28:20.379Z,12.10
2023-02-11T14:30:10.256Z,9.45
2023-02-11T14:31:50.564Z,10.15
2023-02-11T14:33:53.348Z,10.82
2023-02-11T14:35:36.877Z,14.20
2023-02-11T14:37:23.850Z,28.50
2023-02-11T14:39:06.654Z,48.80
2023-02-11T14:40:51.583Z,21.13
2023-02-11T14:42:28.200Z,26.42
2023-02-11T14:44:05.958Z,16.15
2023-02-11T14:45:40.462Z,13.38
2023-02-11T14:47:23.307Z,34.35
2023-02-11T14:49:01.421Z,35.33
2023-02-11T14:50:45.429Z,29.48
2023-02-11T14:52:28.002Z,17.35
2023-02-11T14:54:13.001Z,19.08
2023-02-11T14:55:50.592Z,20.67
2023-02-11T14:57:23.880Z,24.75
2023-02-11T14:58:57.309Z,34.58
2023-02-11T15:00:31.069Z,25.08
2023-02-11T15:02:04.321Z,35.42
2023-02-11T15:03:39.857Z,41.22
2023-02-11T15:05:23.124Z,45.90
2023-02-11T15:07:01.409Z,27.52
2023-02-11T15:08:37.547Z,22.27
2023-02-11T15:10:19.738Z,25.83
2023-02-11T15:11:54.567Z,27.08
2023-02-11T15:13:32.077Z,27.00
2023-02-11T15:15:05.775Z,28.00
2023-02-11T15:16:44.021Z,33.70
2023-02-11T15:18:22.976Z,18.00
2023-02-11T15:20:01.170Z,25.88
2023-02-11T15:21:36.867Z,35.55
2023-02-11T15:23:21.173Z,29.05
2023-02-11T15:25:02.225Z,26.95
2023-02-11T15:26:35.556Z,47.17
2023-02-11T15:28:22.369Z,56.30
2023-02-11T15:29:55.598Z,41.10
2023-02-11T15:31:30.734Z,46.25
2023-02-11T15:33:06.918Z,34.17
2023-02-11T15:34:40.279Z,47.50
2023-02-11T15:36:14.855Z,45.33
2023-02-11T15:37:50.629Z,43.03
2023-02-11T15:39:35.677Z,47.05
2023-02-11T15:41:10.098Z,75.07
2023-02-11T15:42:56.248Z,80.32
2023-02-11T15:44:35.958Z,61.45
2023-02-11T15:46:11.781Z,55.35
2023-02-11T15:47:52.164Z,67.70
2023-02-11T15:49:26.515Z,86.68
2023-02-11T15:51:03.580Z,98.75
2023-02-11T15:52:37.010Z,99.22
2023-02-11T15:54:19.961Z,140.90
2023-02-11T15:56:04.045Z,88.47
2023-02-11T15:57:37.337Z,93.50
2023-02-11T15:59:15.605Z,119.03
2023-02-11T16:00:51.087Z,97.70
2023-02-11T16:02:32.814Z,108.78
2023-02-11T16:04:06.728Z,91.70
2023-02-11T16:05:40.701Z,94.30
2023-02-11T16:07:40.927Z,111.32
2023-02-11T16:09:26.337Z,96.63
2023-02-11T16:11:03.479Z,100.00
2023-02-11T16:12:37.087Z,105.25
2023-02-11T16:14:24.252Z,113.00
2023-02-11T16:16:00.954Z,129.52
2023-02-11T16:17:34.173Z,115.88
2023-02-11T16:19:07.418Z,148.63
2023-02-11T16:20:41.254Z,125.35
2023-02-11T16:22:19.135Z,171.82
2023-02-11T16:23:55.031Z,183.43
2023-02-11T16:25:28.153Z,153.13
2023-02-11T16:27:05.647Z,174.73
2023-02-11T16:28:38.995Z,161.75
2023-02-11T16:30:27.941Z,160.15
2023-02-11T16:32:09.935Z,121.22
2023-02-11T16:33:43.142Z,117.47
2023-02-11T16:35:16.306Z,122.90
2023-02-11T16:36:50.362Z,115.15
2023-02-11T16:38:26.501Z,118.15
2023-02-11T16:39:59.716Z,108.40
2023-02-11T16:41:32.959Z,121.88
2023-02-11T16:43:07.588Z,84.72
2023-02-11T16:44:41.406Z,97.65
2023-02-11T16:46:16.917Z,99.15
2023-02-11T16:47:50.240Z,102.07
2023-02-11T16:49:27.591Z,78.28
2023-02-11T16:51:01.202Z,70.13
2023-02-11T16:52:34.971Z,106.45
2023-02-11T16:54:08.243Z,120.68
2023-02-11T16:55:41.581Z,138.23
2023-02-11T16:57:16.494Z,141.18
2023-02-11T16:58:51.083Z,118.40
2023-02-11T17:00:25.069Z,137.50
2023-02-11T17:01:59.390Z,162.45
2023-02-11T17:03:37.874Z,158.30
2023-02-11T17:05:20.200Z,184.98
2023-02-11T17:06:53.428Z,190.50
2023-02-11T17:08:26.590Z,194.38
2023-02-11T17:10:00.777Z,163.23
2023-02-11T17:11:33.988Z,127.13
2023-02-11T17:13:07.475Z,186.38
2023-02-11T17:14:42.014Z,71.78
2023-02-11T17:16:20.601Z,48.85
2023-02-11T17:17:53.731Z,45.47
2023-02-11T17:19:26.934Z,48.58
2023-02-11T17:21:00.111Z,37.78
2023-02-11T17:22:33.646Z,39.75
2023-02-11T17:24:07.091Z,68.57
2023-02-11T17:25:40.790Z,31.63
2023-02-11T17:27:15.347Z,30.38
2023-02-11T17:28:48.928Z,30.98
2023-02-11T17:30:24.094Z,29.98
2023-02-11T17:31:57.330Z,59.95
2023-02-11T17:33:30.633Z,86.68
2023-02-11T17:35:06.141Z,84.93
2023-02-11T17:36:41.339Z,92.72
2023-02-11T17:38:14.484Z,104.97
2023-02-11T17:39:47.643Z,102.15
2023-02-11T17:41:21.214Z,89.35
2023-02-11T17:42:54.786Z,105.55
2023-02-11T17:44:27.960Z,89.80
2023-02-11T17:46:02.601Z,78.35
2023-02-11T17:47:36.369Z,133.40
2023-02-11T17:49:09.751Z,129.60
2023-02-11T17:50:42.979Z,153.63
2023-02-11T17:52:16.820Z,220.85
2023-02-11T17:53:50.091Z,119.72
2023-02-11T17:55:23.264Z,129.95
2023-02-11T17:56:58.303Z,160.82
2023-02-11T17:58:31.724Z,114.95
2023-02-11T18:00:05.974Z,141.95
2023-02-11T18:01:47.723Z,144.90
2023-02-11T18:03:20.950Z,133.02
2023-02-11T18:04:57.521Z,90.40
2023-02-11T18:06:31.027Z,38.88
2023-02-11T18:08:05.281Z,49.15
2023-02-11T18:09:39.443Z,62.45
2023-02-11T18:11:15.145Z,91.15
2023-02-11T18:12:48.606Z,109.72
2023-02-11T18:14:23.948Z,122.13
2023-02-11T18:16:02.669Z,133.18
2023-02-11T18:17:37.257Z,201.35
2023-02-11T18:19:12.789Z,111.97
2023-02-11T18:20:46.617Z,102.72
2023-02-11T18:22:20.945Z,75.88
2023-02-11T18:23:54.120Z,43.00
2023-02-11T18:25:27.869Z,45.97
2023-02-11T18:27:01.065Z,51.13
2023-02-11T18:28:34.285Z,44.83
2023-02-11T18:30:08.805Z,43.88
2023-02-11T18:31:42.202Z,58.17
2023-02-11T18:33:16.680Z,56.80
2023-02-11T18:34:49.940Z,40.25
2023-02-11T18:36:24.141Z,43.67
2023-02-11T18:37:57.867Z,35.92
2023-02-11T18:39:31.270Z,48.90
2023-02-11T18:41:04.552Z,40.22
2023-02-11T18:42:37.722Z,30.33
2023-02-11T18:44:12.011Z,30.75
2023-02-11T18:45:45.505Z,27.63
2023-02-11T18:47:18.833Z,28.10
2023-02-11T18:48:55.993Z,26.15
2023-02-11T18:50:29.503Z,39.90
2023-02-11T18:52:04.402Z,47.92
2023-02-11T18:53:38.045Z,70.03
2023-02-11T18:55:11.242Z,55.67
2023-02-11T18:56:44.551Z,36.13
2023-02-11T18:58:18.004Z,38.67
2023-02-11T18:59:51.705Z,45.97
2023-02-11T19:01:27.314Z,33.53
2023-02-11T19:03:02.967Z,30.50
2023-02-11T19:04:38.471Z,26.83
2023-02-11T19:06:16.208Z,27.25
2023-02-11T19:07:49.361Z,25.98
2023-02-11T19:09:22.830Z,29.20
2023-02-11T19:10:55.995Z,26.77
2023-02-11T19:12:29.212Z,22.05
2023-02-11T19:14:10.134Z,38.95
2023-02-11T19:15:44.556Z,24.70
2023-02-11T19:17:17.739Z,27.48
2023-02-11T19:18:50.870Z,60.33
2023-02-11T19:20:25.394Z,55.85
2023-02-11T19:22:04.661Z,58.85
2023-02-11T19:23:38.580Z,49.53
2023-02-11T19:25:14.858Z,72.78
2023-02-11T19:26:48.702Z,89.28
2023-02-11T19:28:22.291Z,33.25
2023-02-11T19:29:55.405Z,81.40
2023-02-11T19:31:28.612Z,73.32
2023-02-11T19:33:01.919Z,151.18
2023-02-11T19:34:41.175Z,125.53
2023-02-11T19:36:17.295Z,110.53
2023-02-11T19:37:50.472Z,123.40
2023-02-11T19:39:24.897Z,31.35
2023-02-11T19:40:58.459Z,51.92
2023-02-11T19:42:32.069Z,47.78
2023-02-11T19:44:09.583Z,55.65
2023-02-11T19:45:42.945Z,31.15
2023-02-11T19:47:16.252Z,34.90
2023-02-11T19:48:50.447Z,34.13
2023-02-11T19:50:24.128Z,27.83
2023-02-11T19:51:58.667Z,94.68
2023-02-11T19:53:34.405Z,72.68
2023-02-11T19:55:08.417Z,91.97
2023-02-11T19:56:41.636Z,34.17
2023-02-11T19:58:15.240Z,39.20
2023-02-11T19:59:48.563Z,39.67
2023-02-11T20:01:23.488Z,38.78
2023-02-11T20:02:56.682Z,35.38
2023-02-11T20:04:32.197Z,53.40
2023-02-11T20:06:07.344Z,56.13
2023-02-11T20:07:42.269Z,39.92
2023-02-11T20:09:16.492Z,46.15
2023-02-11T20:10:49.661Z,53.45
2023-02-11T20:12:23.127Z,85.40
2023-02-11T20:13:58.218Z,83.32
2023-02-11T20:15:31.426Z,107.03
2023-02-11T20:17:04.842Z,92.07
2023-02-11T20:18:38.238Z,59.85
2023-02-11T20:20:13.189Z,64.65
2023-02-11T20:21:48.267Z,48.00
2023-02-11T20:23:22.990Z,42.25
2023-02-11T20:24:56.161Z,45.22
2023-02-11T20:26:31.177Z,50.28
2023-02-11T20:28:04.814Z,46.22
2023-02-11T20:29:38.216Z,51.30
2023-02-11T20:31:15.386Z,51.78
2023-02-11T20:32:48.753Z,59.08
2023-02-11T20:34:22.294Z,50.42
2023-02-11T20:35:57.085Z,53.53
2023-02-11T20:37:30.665Z,56.90
2023-02-11T20:39:07.229Z,43.15
2023-02-11T20:40:40.609Z,56.10
2023-02-11T20:42:15.129Z,48.20
2023-02-11T20:43:52.145Z,56.35
2023-02-11T20:45:25.387Z,54.33
2023-02-11T20:46:58.642Z,47.15
2023-02-11T20:48:31.203Z,39.65
2023-02-11T20:50:04.658Z,36.53